createdAt,value
2018-08-20T00:01:38.730Z,99.90
2018-08-20T00:04:05.450Z,99.90
2018-08-20T00:06:33.339Z,99.90
2018-08-20T00:09:00.593Z,99.90
2018-08-20T00:11:27.536Z,99.90
2018-08-20T00:13:54.273Z,99.90
2018-08-20T00:16:20.971Z,99.90
2018-08-20T00:18:47.858Z,99.90
2018-08-20T00:21:14.603Z,99.90
2018-08-20T00:23:41.545Z,99.90
2018-08-20T00:26:08.216Z,99.90
2018-08-20T00:28:34.938Z,99.90
2018-08-20T00:31:01.888Z,99.90
2018-08-20T00:33:28.610Z,99.90
2018-08-20T00:35:55.655Z,99.90
2018-08-20T00:38:23.461Z,99.90
2018-08-20T00:40:50.259Z,99.90
2018-08-20T00:43:17.106Z,99.90
2018-08-20T00:45:43.945Z,99.90
2018-08-20T00:48:10.792Z,99.90
2018-08-20T00:50:37.639Z,99.90
2018-08-20T00:53:04.476Z,99.90
2018-08-20T00:55:31.216Z,99.90
2018-08-20T00:57:57.933Z,99.90
2018-08-20T01:00:25.345Z,99.90
2018-08-20T01:02:52.124Z,99.90
2018-08-20T01:05:18.997Z,99.90
2018-08-20T01:07:45.839Z,99.90
2018-08-20T01:10:12.513Z,99.90
2018-08-20T01:12:39.462Z,99.90
2018-08-20T01:15:06.263Z,99.90
2018-08-20T01:17:33.108Z,99.90
2018-08-20T01:19:59.858Z,99.90
2018-08-20T01:22:26.519Z,99.90
2018-08-20T01:24:53.335Z,99.90
2018-08-20T01:27:20.109Z,99.90
2018-08-20T01:29:46.914Z,99.90
2018-08-20T01:32:13.631Z,99.90
2018-08-20T01:34:41.110Z,99.90
2018-08-20T01:37:07.955Z,99.90
2018-08-20T01:39:34.673Z,99.90
2018-08-20T01:42:02.148Z,99.90
2018-08-20T01:44:28.889Z,99.90
2018-08-20T01:46:55.834Z,99.90
2018-08-20T01:49:22.574Z,99.90
2018-08-20T01:51:49.521Z,99.90
2018-08-20T01:54:16.262Z,99.90
2018-08-20T01:56:43.000Z,99.90
2018-08-20T01:59:09.945Z,99.90
2018-08-20T02:01:36.892Z,99.90
2018-08-20T02:04:03.732Z,99.90
2018-08-20T02:06:30.450Z,99.90
2018-08-20T02:08:58.034Z,99.90
2018-08-20T02:11:24.753Z,99.90
2018-08-20T02:13:52.231Z,99.90
2018-08-20T02:16:19.077Z,99.90
2018-08-20T02:18:46.026Z,99.90
2018-08-20T02:21:12.763Z,99.90
2018-08-20T02:26:37.987Z,99.90
2018-08-20T02:29:04.661Z,99.90
2018-08-20T02:31:31.468Z,99.90
2018-08-20T02:33:58.142Z,99.90
2018-08-20T02:36:24.947Z,99.90
2018-08-20T02:38:51.689Z,99.90
2018-08-20T02:41:18.426Z,99.90
2018-08-20T02:43:45.168Z,99.90
2018-08-20T02:46:11.884Z,99.90
2018-08-20T02:48:38.649Z,99.90
2018-08-20T02:51:05.371Z,99.90
2018-08-20T02:53:32.130Z,99.90
2018-08-20T02:55:58.973Z,99.90
2018-08-20T02:58:25.679Z,99.90
2018-08-20T03:00:53.375Z,99.90
2018-08-20T03:03:20.110Z,99.90
2018-08-20T03:05:46.856Z,99.90
2018-08-20T03:08:13.803Z,99.90
2018-08-20T03:10:40.649Z,99.90
2018-08-20T03:13:07.324Z,99.90
2018-08-20T03:15:33.977Z,99.90
2018-08-20T03:18:01.578Z,99.90
2018-08-20T03:20:28.318Z,99.90
2018-08-20T03:22:55.058Z,99.90
2018-08-20T03:25:22.007Z,99.90
2018-08-20T03:27:48.744Z,99.90
2018-08-20T03:30:15.488Z,99.90
2018-08-20T03:32:42.303Z,99.90
2018-08-20T03:35:24.737Z,99.90
2018-08-20T03:37:51.578Z,99.90
2018-08-20T03:40:18.425Z,99.90
2018-08-20T03:42:45.966Z,99.90
2018-08-20T03:45:13.400Z,99.90
2018-08-20T03:47:40.180Z,99.90
2018-08-20T03:50:07.001Z,99.90
2018-08-20T03:52:34.451Z,99.90
2018-08-20T03:55:02.015Z,99.90
2018-08-20T03:57:28.984Z,99.90
2018-08-20T03:59:55.723Z,99.90
2018-08-20T04:02:22.441Z,99.90
2018-08-20T04:04:55.261Z,99.90
2018-08-20T04:07:21.985Z,99.90
2018-08-20T04:09:48.812Z,99.90
2018-08-20T04:12:16.290Z,99.90
2018-08-20T04:14:42.996Z,99.90
2018-08-20T04:17:10.588Z,99.90
2018-08-20T04:19:37.326Z,99.90
2018-08-20T04:22:04.069Z,99.90
2018-08-20T04:24:30.811Z,99.90
2018-08-20T04:26:57.521Z,99.90
2018-08-20T04:29:25.001Z,99.90
2018-08-20T04:31:51.641Z,99.90
2018-08-20T04:34:18.405Z,99.90
2018-08-20T04:36:45.126Z,99.90
2018-08-20T04:39:11.833Z,99.90
2018-08-20T04:41:38.809Z,99.90
2018-08-20T04:44:05.554Z,99.90
2018-08-20T04:46:32.291Z,99.90
2018-08-20T04:48:59.130Z,99.90
2018-08-20T04:51:26.172Z,99.90
2018-08-20T04:53:52.924Z,99.90
2018-08-20T04:56:34.613Z,99.90
2018-08-20T04:59:01.337Z,99.90
2018-08-20T05:01:28.090Z,99.90
2018-08-20T05:03:54.861Z,99.90
2018-08-20T05:06:21.780Z,99.90
2018-08-20T05:08:48.422Z,99.90
2018-08-20T05:11:15.160Z,99.90
2018-08-20T05:13:42.204Z,99.90
2018-08-20T05:16:09.045Z,99.90
2018-08-20T05:18:35.703Z,99.90
2018-08-20T05:21:02.728Z,99.90
2018-08-20T05:23:29.356Z,99.90
2018-08-20T05:25:56.108Z,99.90
2018-08-20T05:28:22.847Z,98.90
2018-08-20T05:30:49.536Z,96.10
2018-08-20T05:33:16.332Z,95.70
2018-08-20T05:35:43.054Z,93.30
2018-08-20T05:38:10.506Z,86.30
2018-08-20T05:40:37.203Z,86.20
2018-08-20T05:43:04.085Z,82.20
2018-08-20T05:45:31.476Z,71.30
2018-08-20T05:47:58.131Z,71.30
2018-08-20T05:50:24.840Z,71.80
2018-08-20T05:52:51.684Z,73.80
2018-08-20T05:55:18.411Z,75.00
2018-08-20T05:57:45.883Z,71.80
2018-08-20T06:00:12.724Z,71.70
2018-08-20T06:02:39.467Z,66.80
2018-08-20T06:05:06.210Z,66.10
2018-08-20T06:07:33.151Z,66.50
2018-08-20T06:09:59.845Z,67.10
2018-08-20T06:12:26.606Z,66.30
2018-08-20T06:14:53.318Z,67.90
2018-08-20T06:17:20.039Z,68.20
2018-08-20T06:19:47.546Z,72.40
2018-08-20T06:22:15.031Z,70.50
2018-08-20T06:24:41.875Z,70.40
2018-08-20T06:27:08.614Z,64.90
2018-08-20T06:29:35.458Z,61.50
2018-08-20T06:32:02.401Z,58.10
2018-08-20T06:34:29.139Z,57.90
2018-08-20T06:36:55.857Z,60.60
2018-08-20T06:39:23.338Z,54.40
2018-08-20T06:41:50.080Z,54.40
2018-08-20T06:44:17.021Z,52.90
2018-08-20T06:46:43.738Z,51.10
2018-08-20T06:49:10.501Z,50.80
2018-08-20T06:51:37.294Z,48.70
2018-08-20T06:54:04.065Z,50.30
2018-08-20T06:56:30.831Z,48.70
2018-08-20T06:58:57.585Z,49.90
2018-08-20T07:01:24.337Z,51.90
2018-08-20T07:03:51.481Z,54.50
2018-08-20T07:06:18.330Z,56.50
2018-08-20T07:08:45.259Z,60.50
2018-08-20T07:11:12.920Z,64.50
2018-08-20T07:13:40.298Z,64.40
2018-08-20T07:16:07.033Z,66.50
2018-08-20T07:18:33.900Z,66.80
2018-08-20T07:21:01.691Z,67.10
2018-08-20T07:23:28.664Z,67.00
2018-08-20T07:25:56.113Z,64.40
2018-08-20T07:28:22.958Z,62.70
2018-08-20T07:30:49.750Z,61.60
2018-08-20T07:33:18.611Z,58.00
2018-08-20T07:35:45.735Z,57.90
2018-08-20T07:38:12.411Z,57.80
2018-08-20T07:40:39.299Z,58.30
2018-08-20T07:43:06.160Z,59.10
2018-08-20T07:45:32.907Z,57.90
2018-08-20T07:47:59.796Z,57.80
2018-08-20T07:50:26.498Z,57.80
2018-08-20T07:52:53.272Z,57.10
2018-08-20T07:55:20.723Z,61.00
2018-08-20T07:57:47.445Z,61.00
2018-08-20T08:00:14.808Z,59.10
2018-08-20T08:02:41.720Z,59.50
2018-08-20T08:05:08.427Z,58.90
2018-08-20T08:07:36.123Z,62.10
2018-08-20T08:10:02.882Z,62.20
2018-08-20T08:12:29.604Z,65.30
2018-08-20T08:14:56.758Z,65.20
2018-08-20T08:17:23.498Z,67.20
2018-08-20T08:19:50.256Z,67.70
2018-08-20T08:22:17.186Z,70.50
2018-08-20T08:24:44.126Z,71.60
2018-08-20T08:27:11.176Z,71.10
2018-08-20T08:29:38.515Z,70.50
2018-08-20T08:32:05.659Z,72.20
2018-08-20T08:34:33.143Z,74.30
2018-08-20T08:37:00.070Z,74.20
2018-08-20T08:39:27.027Z,73.20
2018-08-20T08:41:54.561Z,73.30
2018-08-20T08:44:22.042Z,73.00
2018-08-20T08:46:48.886Z,72.80
2018-08-20T08:49:15.728Z,70.60
2018-08-20T08:51:42.572Z,69.30
2018-08-20T08:54:09.412Z,67.10
2018-08-20T08:56:36.444Z,68.70
2018-08-20T08:59:03.904Z,69.20
2018-08-20T09:01:30.765Z,69.20
2018-08-20T09:03:57.516Z,67.50
2018-08-20T09:06:25.825Z,68.20
2018-08-20T09:08:52.723Z,68.20
2018-08-20T09:11:19.456Z,68.50
2018-08-20T09:13:46.346Z,69.90
2018-08-20T09:16:13.252Z,70.80
2018-08-20T09:18:39.990Z,70.80
2018-08-20T09:21:06.709Z,72.20
2018-08-20T09:23:34.140Z,69.60
2018-08-20T09:26:00.929Z,69.60
2018-08-20T09:28:27.771Z,69.30
2018-08-20T09:30:54.514Z,71.80
2018-08-20T09:33:21.254Z,73.70
2018-08-20T09:35:47.972Z,72.20
2018-08-20T09:38:15.472Z,72.80
2018-08-20T09:40:42.295Z,73.60
2018-08-20T09:43:08.970Z,71.70
2018-08-20T09:45:35.849Z,72.70
2018-08-20T09:48:03.303Z,66.40
2018-08-20T09:50:30.699Z,66.60
2018-08-20T09:52:57.364Z,66.60
2018-08-20T09:55:24.170Z,65.80
2018-08-20T09:57:51.194Z,65.40
2018-08-20T10:00:18.881Z,66.30
2018-08-20T10:02:45.723Z,66.20
2018-08-20T10:05:13.285Z,65.60
2018-08-20T10:07:39.948Z,67.40
2018-08-20T10:10:06.868Z,66.70
2018-08-20T10:12:33.572Z,67.70
2018-08-20T10:15:00.347Z,67.50
2018-08-20T10:17:27.035Z,69.70
2018-08-20T10:19:53.805Z,69.40
2018-08-20T10:22:21.694Z,69.10
2018-08-20T10:24:48.434Z,69.20
2018-08-20T10:27:15.174Z,70.20
2018-08-20T10:29:41.913Z,69.60
2018-08-20T10:32:08.756Z,70.20
2018-08-20T10:34:35.601Z,70.20
2018-08-20T10:37:02.442Z,71.10
2018-08-20T10:39:29.184Z,70.50
2018-08-20T10:41:56.128Z,73.00
2018-08-20T10:44:22.869Z,71.40
2018-08-20T10:46:49.607Z,71.90
2018-08-20T10:49:16.452Z,72.40
2018-08-20T10:51:43.194Z,72.90
2018-08-20T10:54:09.933Z,73.50
2018-08-20T10:56:36.612Z,74.80
2018-08-20T10:59:04.131Z,76.20
2018-08-20T11:01:30.869Z,76.20
2018-08-20T11:03:57.818Z,75.60
2018-08-20T11:06:24.492Z,74.50
2018-08-20T11:08:51.399Z,74.70
2018-08-20T11:11:18.450Z,75.60
2018-08-20T11:13:45.184Z,75.70
2018-08-20T11:16:11.926Z,76.50
2018-08-20T11:18:38.809Z,77.80
2018-08-20T11:21:05.614Z,76.60
2018-08-20T11:23:32.455Z,76.30
2018-08-20T11:25:59.606Z,77.30
2018-08-20T11:28:26.266Z,77.40
2018-08-20T11:30:53.085Z,77.80
2018-08-20T11:33:19.929Z,76.60
2018-08-20T11:35:46.667Z,77.00
2018-08-20T11:38:13.407Z,78.80
2018-08-20T11:40:40.251Z,80.20
2018-08-20T11:43:07.002Z,81.80
2018-08-20T11:45:33.915Z,82.40
2018-08-20T11:48:01.395Z,83.90
2018-08-20T11:50:28.135Z,83.90
2018-08-20T11:52:55.028Z,84.50
2018-08-20T11:55:21.719Z,84.40
2018-08-20T11:57:48.377Z,84.70
2018-08-20T12:00:15.197Z,84.10
2018-08-20T12:02:41.940Z,84.90
2018-08-20T12:05:23.631Z,85.70
2018-08-20T12:07:50.483Z,85.90
2018-08-20T12:10:17.316Z,87.10
2018-08-20T12:12:44.054Z,87.70
2018-08-20T12:15:10.797Z,88.30
2018-08-20T12:17:37.536Z,88.30
2018-08-20T12:20:04.482Z,87.50
2018-08-20T12:22:31.301Z,86.30
2018-08-20T12:24:57.896Z,85.50
2018-08-20T12:27:24.807Z,86.10
2018-08-20T12:29:51.648Z,84.40
2018-08-20T12:32:18.385Z,85.00
2018-08-20T12:34:45.231Z,83.10
2018-08-20T12:37:11.971Z,83.60
2018-08-20T12:39:38.740Z,84.00
2018-08-20T12:42:05.559Z,84.50
2018-08-20T12:44:32.243Z,85.30
2018-08-20T12:46:59.139Z,85.40
2018-08-20T12:49:25.876Z,84.80
2018-08-20T12:51:52.721Z,85.50
2018-08-20T12:54:19.667Z,86.40
2018-08-20T12:56:46.405Z,86.80
2018-08-20T12:59:13.145Z,86.80
2018-08-20T13:01:40.045Z,87.20
2018-08-20T13:04:06.832Z,87.80
2018-08-20T13:06:33.572Z,87.60
2018-08-20T13:09:00.372Z,87.80
2018-08-20T13:11:27.157Z,87.80
2018-08-20T13:13:53.899Z,87.80
2018-08-20T13:16:20.729Z,88.60
2018-08-20T13:18:47.480Z,87.50
2018-08-20T13:21:14.426Z,88.00
2018-08-20T13:23:41.166Z,87.60
2018-08-20T13:26:07.904Z,87.50
2018-08-20T13:28:34.643Z,87.20
2018-08-20T13:31:01.385Z,86.70
2018-08-20T13:33:28.124Z,87.10
2018-08-20T13:35:54.969Z,86.60
2018-08-20T13:38:21.913Z,86.70
2018-08-20T13:40:48.860Z,86.60
2018-08-20T13:43:15.600Z,86.40
2018-08-20T13:45:42.656Z,87.80
2018-08-20T13:48:09.377Z,89.20
2018-08-20T13:50:36.228Z,89.70
2018-08-20T13:53:03.075Z,90.10
2018-08-20T13:55:30.326Z,90.20
2018-08-20T13:57:57.064Z,90.40
2018-08-20T14:00:24.009Z,89.60
2018-08-20T14:02:50.854Z,89.80
2018-08-20T14:05:17.696Z,89.60
2018-08-20T14:07:44.643Z,90.20
2018-08-20T14:10:11.386Z,90.30
2018-08-20T14:12:38.120Z,90.60
2018-08-20T14:15:04.860Z,90.10
2018-08-20T14:17:31.597Z,90.20
2018-08-20T14:19:58.325Z,90.60
2018-08-20T14:22:25.031Z,90.20
2018-08-20T14:24:51.889Z,90.80
2018-08-20T14:27:18.531Z,90.80
2018-08-20T14:29:45.974Z,90.20
2018-08-20T14:32:13.069Z,90.10
2018-08-20T14:34:39.945Z,90.00
2018-08-20T14:37:06.962Z,90.20
2018-08-20T14:39:33.882Z,90.20
2018-08-20T14:42:00.616Z,90.20
2018-08-20T14:44:28.034Z,90.30
2018-08-20T14:46:54.726Z,90.20
2018-08-20T14:49:21.446Z,89.20
2018-08-20T14:51:48.937Z,89.50
2018-08-20T14:54:15.676Z,89.60
2018-08-20T14:56:43.195Z,90.00
2018-08-20T14:59:09.978Z,89.50
2018-08-20T15:01:36.613Z,90.40
2018-08-20T15:04:03.457Z,90.40
2018-08-20T15:06:30.611Z,90.40
2018-08-20T15:08:57.594Z,90.30
2018-08-20T15:11:24.394Z,90.50
2018-08-20T15:13:51.237Z,90.70
2018-08-20T15:16:18.084Z,91.10
2018-08-20T15:18:44.821Z,91.10
2018-08-20T15:21:11.559Z,91.10
2018-08-20T15:23:38.303Z,90.90
2018-08-20T15:26:05.250Z,90.90
2018-08-20T15:28:32.091Z,90.80
2018-08-20T15:30:58.803Z,90.60
2018-08-20T15:33:26.286Z,90.50
2018-08-20T15:35:53.232Z,90.50
2018-08-20T15:38:19.899Z,90.30
2018-08-20T15:40:46.636Z,89.40
2018-08-20T15:43:13.453Z,89.70
2018-08-20T15:45:40.167Z,89.30
2018-08-20T15:48:06.908Z,90.50
2018-08-20T15:50:34.396Z,90.20
2018-08-20T15:53:01.166Z,90.10
2018-08-20T15:55:28.077Z,90.50
2018-08-20T15:57:54.821Z,90.20
2018-08-20T16:00:21.867Z,90.20
2018-08-20T16:02:49.018Z,90.10
2018-08-20T16:05:15.933Z,90.20
2018-08-20T16:07:43.213Z,90.20
2018-08-20T16:10:10.156Z,90.40
2018-08-20T16:12:36.896Z,91.20
2018-08-20T16:15:03.715Z,91.40
2018-08-20T16:17:31.202Z,91.00
2018-08-20T16:19:57.937Z,91.00
2018-08-20T16:22:39.459Z,90.80
2018-08-20T16:25:06.984Z,90.90
2018-08-20T16:27:33.723Z,90.80
2018-08-20T16:30:00.466Z,91.00
2018-08-20T16:32:27.306Z,91.00
2018-08-20T16:34:54.047Z,91.60
2018-08-20T16:37:21.096Z,91.90
2018-08-20T16:39:47.983Z,91.60
2018-08-20T16:42:14.784Z,91.80
2018-08-20T16:44:42.222Z,92.00
2018-08-20T16:47:09.693Z,91.90
2018-08-20T16:49:36.638Z,91.90
2018-08-20T16:52:03.359Z,92.50
2018-08-20T16:54:30.941Z,93.00
2018-08-20T16:56:57.862Z,93.00
2018-08-20T16:59:25.370Z,93.20
2018-08-20T17:01:52.080Z,93.40
2018-08-20T17:04:19.129Z,93.40
2018-08-20T17:06:46.794Z,93.40
2018-08-20T17:09:13.880Z,93.60
2018-08-20T17:11:40.685Z,93.60
2018-08-20T17:14:07.730Z,93.70
2018-08-20T17:16:34.476Z,93.90
2018-08-20T17:19:01.405Z,94.10
2018-08-20T17:21:28.068Z,94.00
2018-08-20T17:23:55.001Z,93.70
2018-08-20T17:26:22.769Z,93.80
2018-08-20T17:28:49.548Z,93.80
2018-08-20T17:31:17.168Z,93.80
2018-08-20T17:33:44.011Z,93.80
2018-08-20T17:36:10.852Z,93.80
2018-08-20T17:38:37.593Z,93.80
2018-08-20T17:41:04.435Z,94.30
2018-08-20T17:43:32.197Z,94.40
2018-08-20T17:45:58.941Z,94.40
2018-08-20T17:48:25.751Z,94.40
2018-08-20T17:50:52.460Z,94.90
2018-08-20T17:53:19.262Z,95.00
2018-08-20T17:55:46.004Z,95.20
2018-08-20T17:58:12.742Z,95.60
2018-08-20T18:00:39.996Z,95.50
2018-08-20T18:03:07.045Z,96.00
2018-08-20T18:05:33.787Z,96.30
2018-08-20T18:08:00.531Z,96.70
2018-08-20T18:10:27.266Z,97.30
2018-08-20T18:12:54.208Z,97.50
2018-08-20T18:15:20.949Z,98.00
2018-08-20T18:17:47.997Z,98.40
2018-08-20T18:20:15.965Z,99.80
2018-08-20T18:22:42.809Z,99.70
2018-08-20T18:25:10.473Z,99.90
2018-08-20T18:27:37.312Z,99.90
2018-08-20T18:30:04.015Z,99.90
2018-08-20T18:32:31.501Z,99.90
2018-08-20T18:34:58.253Z,99.90
2018-08-20T18:37:24.991Z,99.90
2018-08-20T18:39:51.834Z,99.90
2018-08-20T18:42:18.575Z,99.90
2018-08-20T18:44:45.624Z,99.90
2018-08-20T18:47:13.796Z,99.90
2018-08-20T18:49:41.577Z,99.90
2018-08-20T18:52:08.711Z,99.90
2018-08-20T18:54:36.376Z,99.90
2018-08-20T18:57:03.258Z,99.90
2018-08-20T18:59:30.039Z,99.90
2018-08-20T19:01:57.313Z,99.90
2018-08-20T19:04:24.154Z,99.90
2018-08-20T19:06:50.969Z,99.90
2018-08-20T19:09:18.383Z,99.90
2018-08-20T19:11:45.269Z,99.90
2018-08-20T19:14:12.770Z,99.90
2018-08-20T19:16:39.495Z,99.90
2018-08-20T19:19:06.447Z,99.90
2018-08-20T19:21:33.280Z,99.90
2018-08-20T19:24:00.126Z,99.90
2018-08-20T19:26:26.968Z,99.90
2018-08-20T19:28:53.808Z,99.90
2018-08-20T19:31:20.653Z,99.90
2018-08-20T19:33:47.494Z,99.90
2018-08-20T19:36:14.313Z,99.90
2018-08-20T19:38:41.289Z,99.90
2018-08-20T19:41:08.115Z,99.90
2018-08-20T19:43:35.173Z,99.90
2018-08-20T19:46:02.199Z,99.90
2018-08-20T19:48:29.047Z,99.90
2018-08-20T19:50:57.037Z,99.90
2018-08-20T19:53:23.875Z,99.90
2018-08-20T19:55:50.905Z,99.90
2018-08-20T19:58:18.242Z,99.90
2018-08-20T20:00:45.821Z,99.90
2018-08-20T20:03:12.878Z,99.90
2018-08-20T20:05:39.761Z,99.90
2018-08-20T20:08:06.473Z,99.90
2018-08-20T20:10:33.422Z,99.90
2018-08-20T20:13:00.258Z,99.90
2018-08-20T20:15:27.103Z,99.90
2018-08-20T20:17:54.049Z,99.90
2018-08-20T20:20:20.785Z,99.90
2018-08-20T20:22:47.526Z,99.90
2018-08-20T20:25:14.369Z,99.90
2018-08-20T20:27:41.110Z,99.90
2018-08-20T20:30:07.958Z,99.90
2018-08-20T20:32:34.692Z,99.90
2018-08-20T20:35:02.056Z,99.90
2018-08-20T20:37:28.787Z,99.90
2018-08-20T20:39:56.038Z,99.90
2018-08-20T20:42:22.880Z,99.90
2018-08-20T20:44:49.996Z,99.90
2018-08-20T20:47:17.078Z,99.90
2018-08-20T20:49:44.540Z,99.90
2018-08-20T20:52:11.380Z,99.90
2018-08-20T20:54:38.120Z,99.90
2018-08-20T20:57:04.803Z,99.90
2018-08-20T20:59:31.642Z,99.90
2018-08-20T21:01:58.444Z,99.90
2018-08-20T21:04:25.309Z,99.90
2018-08-20T21:06:52.126Z,99.90
2018-08-20T21:09:19.072Z,99.90
2018-08-20T21:11:46.018Z,99.90
2018-08-20T21:14:12.912Z,99.90
2018-08-20T21:16:39.807Z,99.90
2018-08-20T21:19:06.756Z,99.90
2018-08-20T21:21:33.597Z,99.90
2018-08-20T21:24:00.540Z,99.90
2018-08-20T21:26:27.997Z,99.90
2018-08-20T21:28:55.257Z,99.90
2018-08-20T21:31:22.502Z,99.90
2018-08-20T21:33:49.343Z,99.90
2018-08-20T21:36:16.438Z,99.90
2018-08-20T21:38:43.239Z,99.90
2018-08-20T21:41:09.948Z,99.90
2018-08-20T21:43:37.613Z,99.90
2018-08-20T21:46:05.093Z,99.90
2018-08-20T21:48:31.844Z,99.90
2018-08-20T21:50:58.778Z,99.90
2018-08-20T21:53:25.459Z,99.90
2018-08-20T21:55:53.697Z,99.90
2018-08-20T21:58:20.637Z,99.90
2018-08-20T22:00:48.339Z,99.90
2018-08-20T22:03:15.249Z,99.90
2018-08-20T22:05:42.269Z,99.90
2018-08-20T22:08:09.749Z,99.90
2018-08-20T22:10:36.594Z,99.90
2018-08-20T22:13:03.308Z,99.90
2018-08-20T22:15:30.765Z,99.90
2018-08-20T22:17:58.552Z,99.90
2018-08-20T22:20:25.382Z,99.90
2018-08-20T22:22:52.437Z,99.90
2018-08-20T22:25:22.153Z,99.90
2018-08-20T22:27:49.405Z,99.90
2018-08-20T22:30:16.556Z,99.90
2018-08-20T22:32:43.910Z,99.90
2018-08-20T22:35:11.059Z,99.90
2018-08-20T22:37:39.338Z,99.90
2018-08-20T22:40:07.305Z,99.90
2018-08-20T22:42:34.741Z,99.90
2018-08-20T22:45:02.328Z,99.90
2018-08-20T22:47:29.766Z,99.90
2018-08-20T22:49:56.522Z,99.90
2018-08-20T22:52:23.349Z,99.90
2018-08-20T22:54:50.410Z,99.90
2018-08-20T22:57:17.358Z,99.90
2018-08-20T22:59:44.097Z,99.90
2018-08-20T23:02:10.942Z,99.90
2018-08-20T23:04:38.808Z,99.90
2018-08-20T23:07:05.854Z,99.90
2018-08-20T23:09:33.005Z,99.90
2018-08-20T23:11:59.744Z,99.90
2018-08-20T23:14:27.102Z,99.90
2018-08-20T23:16:54.008Z,99.90
2018-08-20T23:19:21.499Z,99.90
2018-08-20T23:21:48.649Z,99.90
2018-08-20T23:24:15.598Z,99.90
2018-08-20T23:26:42.544Z,99.90
2018-08-20T23:29:09.592Z,99.90
2018-08-20T23:31:36.510Z,99.90
2018-08-20T23:34:03.456Z,99.90
2018-08-20T23:36:31.140Z,99.90
2018-08-20T23:38:57.985Z,99.90
2018-08-20T23:41:24.801Z,99.90
2018-08-20T23:43:52.452Z,99.90
2018-08-20T23:46:21.178Z,99.90
2018-08-20T23:48:47.993Z,99.90
2018-08-20T23:51:15.475Z,99.90
2018-08-20T23:53:42.324Z,99.90
2018-08-20T23:56:09.159Z,99.90
2018-08-20T23:58:36.002Z,99.90
